Time;durP1;ratioP1;P1;durP2;ratioP2;P2;SDS_P1;SDS_P2;PMS_P1;PMS_P2;Temp;Humidity;BMP_temperature;BMP_pressure;BME280_temperature;BME280_humidity;BME280_pressure;Samples;Min_cycle;Max_cycle;Signal;HPM_P1;HPM_P2
2022/01/11 00:01:16;;;;;;;;;;;;;;;12.42;50.10;102208.00;4921175;28;107173;-57
2022/01/11 00:03:42;;;;;;;;;;;;;;;12.40;50.19;102207.41;4920466;28;125092;-65
2022/01/11 00:08:45;;;;;;;;;;;;;;;12.41;49.92;102210.91;4927158;28;97853;-65
2022/01/11 00:11:11;;;;;;;;;;;;;;;12.39;49.90;102208.47;4948585;28;97694;-64
2022/01/11 00:13:38;;;;;;;;;;;;;;;12.38;50.11;102219.50;4940813;28;118672;-64
2022/01/11 00:16:05;;;;;;;;;;;;;;;12.38;49.98;102216.78;4937485;28;111873;-57
2022/01/11 00:18:31;;;;;;;;;;;;;;;12.37;50.05;102213.28;4941761;28;97840;-64
2022/01/11 00:20:57;;;;;;;;;;;;;;;12.36;50.04;102222.44;4940466;28;118375;-56
2022/01/11 00:25:50;;;;;;;;;;;;;;;12.36;49.85;102221.63;4940428;28;115333;-57
2022/01/11 00:28:16;;;;;;;;;;;;;;;12.33;49.92;102222.91;4939579;28;97853;-64
2022/01/11 00:30:44;;;;;;;;;;;;;;;12.33;49.93;102222.09;4941323;28;99096;-57
2022/01/11 00:33:15;;;;;;;;;;;;;;;12.32;49.87;102229.38;4926583;28;98711;-57
2022/01/11 00:35:45;;;;;;;;;;;;;;;12.32;49.92;102220.47;4920099;28;98314;-57
2022/01/11 00:38:17;;;;;;;;;;;;;;;12.31;49.78;102233.16;4922385;28;97995;-65
2022/01/11 00:40:50;;;;;;;;;;;;;;;12.30;49.81;102236.94;4921339;28;98691;-63
2022/01/11 00:43:20;;;;;;;;;;;;;;;12.28;49.79;102230.94;4921473;28;98341;-57
2022/01/11 00:45:46;;;;;;;;;;;;;;;12.28;49.81;102241.75;4920682;28;118212;-56
2022/01/11 00:48:12;;;;;;;;;;;;;;;12.27;49.81;102243.63;4921125;28;98205;-57
2022/01/11 00:50:38;;;;;;;;;;;;;;;12.27;49.79;102243.63;4919741;28;123880;-65
2022/01/11 00:53:05;;;;;;;;;;;;;;;12.26;49.81;102239.28;4922738;28;98552;-65
2022/01/11 00:55:31;;;;;;;;;;;;;;;12.25;49.54;102243.03;4930384;28;98164;-64
2022/01/11 00:57:57;;;;;;;;;;;;;;;12.25;49.61;102244.91;4935429;28;100901;-56
2022/01/11 01:00:23;;;;;;;;;;;;;;;12.23;49.70;102252.44;4920164;28;115711;-65
2022/01/11 01:02:49;;;;;;;;;;;;;;;12.23;50.09;102247.84;4938911;28;99179;-64
2022/01/11 01:05:17;;;;;;;;;;;;;;;12.21;49.67;102247.25;4940904;28;107866;-57
2022/01/11 01:07:44;;;;;;;;;;;;;;;12.20;49.55;102248.31;4941165;28;98129;-64
2022/01/11 01:10:20;;;;;;;;;;;;;;;12.20;49.80;102255.63;4941008;28;97949;-64
2022/01/11 01:12:46;;;;;;;;;;;;;;;12.20;49.58;102255.63;4931838;28;98213;-56
2022/01/11 01:15:12;;;;;;;;;;;;;;;12.18;49.79;102263.97;4919841;28;116680;-57
2022/01/11 01:17:37;;;;;;;;;;;;;;;12.17;49.44;102258.78;4919618;28;123483;-65
2022/01/11 01:20:04;;;;;;;;;;;;;;;12.16;49.67;102262.53;4919852;28;115940;-57
2022/01/11 01:22:30;;;;;;;;;;;;;;;12.15;49.53;102259.03;4927223;28;118959;-57
2022/01/11 01:24:56;;;;;;;;;;;;;;;12.14;49.37;102254.66;4939938;28;98240;-57
2022/01/11 01:27:22;;;;;;;;;;;;;;;12.13;49.33;102255.72;4939860;28;122018;-64
2022/01/11 01:29:48;;;;;;;;;;;;;;;12.13;49.38;102258.41;4938691;28;128837;-64
2022/01/11 01:32:13;;;;;;;;;;;;;;;12.13;49.47;102263.00;4938981;28;115705;-64
2022/01/11 01:34:39;;;;;;;;;;;;;;;12.13;49.50;102263.00;4939045;28;98600;-57
2022/01/11 01:37:07;;;;;;;;;;;;;;;12.12;49.60;102272.19;4938484;28;123290;-57
2022/01/11 01:39:33;;;;;;;;;;;;;;;12.11;49.40;102273.25;4938602;28;99131;-57
2022/01/11 01:42:05;;;;;;;;;;;;;;;12.10;49.40;102276.97;4936642;28;119404;-56
2022/01/11 01:44:33;;;;;;;;;;;;;;;12.08;49.12;102285.34;4940204;28;98586;-57
2022/01/11 01:46:59;;;;;;;;;;;;;;;12.07;49.43;102285.59;4940041;28;98250;-64
2022/01/11 01:49:25;;;;;;;;;;;;;;;12.03;49.45;102294.16;4938709;28;125593;-64
2022/01/11 01:51:52;;;;;;;;;;;;;;;12.03;49.47;102294.16;4927183;28;99491;-65
2022/01/11 01:54:18;;;;;;;;;;;;;;;12.03;49.23;102304.16;4932950;28;98892;-64
2022/01/11 01:56:44;;;;;;;;;;;;;;;12.02;49.18;102302.47;4920350;28;97960;-64
2022/01/11 01:59:10;;;;;;;;;;;;;;;12.00;49.38;102296.50;4931718;28;128065;-64
2022/01/11 02:01:44;;;;;;;;;;;;;;;11.99;49.36;102301.09;4938173;28;122697;-57
2022/01/11 02:04:10;;;;;;;;;;;;;;;11.98;49.51;102301.28;4938977;28;98061;-64
2022/01/11 02:06:36;;;;;;;;;;;;;;;11.97;49.25;102297.78;4934061;28;97931;-57
2022/01/11 02:09:03;;;;;;;;;;;;;;;11.96;49.08;102303.41;4940940;28;98578;-65
2022/01/11 02:11:28;;;;;;;;;;;;;;;11.95;49.31;102302.59;4943797;28;108613;-65
2022/01/11 02:13:54;;;;;;;;;;;;;;;11.95;49.06;102299.09;4939652;28;128053;-64
2022/01/11 02:16:22;;;;;;;;;;;;;;;11.93;49.37;102302.00;4941100;28;124078;-57
2022/01/11 02:18:48;;;;;;;;;;;;;;;11.93;49.08;102303.88;4940345;28;99591;-56
2022/01/11 02:21:14;;;;;;;;;;;;;;;11.92;49.36;102307.66;4942221;28;100712;-64
2022/01/11 02:23:40;;;;;;;;;;;;;;;11.92;49.36;102318.47;4940890;28;126937;-58
2022/01/11 02:26:06;;;;;;;;;;;;;;;11.91;48.93;102319.50;4942104;28;98109;-57
2022/01/11 02:28:33;;;;;;;;;;;;;;;11.90;49.17;102318.66;4941322;28;127442;-64
2022/01/11 02:31:00;;;;;;;;;;;;;;;11.88;48.99;102317.28;4940424;28;98426;-57
2022/01/11 02:33:32;;;;;;;;;;;;;;;11.87;49.20;102321.84;4942465;28;112322;-64
2022/01/11 02:36:00;;;;;;;;;;;;;;;11.86;49.02;102322.88;4940485;28;98073;-64
2022/01/11 02:38:26;;;;;;;;;;;;;;;11.84;49.03;102327.72;4943675;28;98547;-63
2022/01/11 02:40:55;;;;;;;;;;;;;;;11.83;49.20;102328.78;4941677;28;128008;-64
2022/01/11 02:43:20;;;;;;;;;;;;;;;11.83;49.03;102333.31;4927517;28;98009;-56
2022/01/11 02:45:46;;;;;;;;;;;;;;;11.82;49.14;102335.19;4921356;28;122285;-64
2022/01/11 02:48:12;;;;;;;;;;;;;;;11.81;48.94;102338.94;4922973;28;127717;-64
2022/01/11 02:50:38;;;;;;;;;;;;;;;11.79;49.18;102332.97;4922588;28;126535;-64
2022/01/11 02:53:04;;;;;;;;;;;;;;;11.79;48.83;102335.66;4941664;28;98306;-65
2022/01/11 02:55:33;;;;;;;;;;;;;;;11.78;49.16;102337.50;4940054;28;120412;-56
2022/01/11 02:57:59;;;;;;;;;;;;;;;11.77;48.74;102335.06;4942190;28;98346;-64
2022/01/11 03:00:25;;;;;;;;;;;;;;;11.77;49.19;102330.47;4939781;28;120845;-64
2022/01/11 03:02:50;;;;;;;;;;;;;;;11.76;49.03;102333.41;4941369;28;98133;-64
2022/01/11 03:05:16;;;;;;;;;;;;;;;11.74;48.54;102335.50;4941957;28;98084;-56
2022/01/11 03:07:43;;;;;;;;;;;;;;;11.74;48.92;102336.31;4931995;28;116219;-64
2022/01/11 03:12:48;;;;;;;;;;;;;;;11.71;49.01;102344.06;4921994;28;98388;-57
2022/01/11 03:15:14;;;;;;;;;;;;;;;11.70;48.61;102347.81;4931814;28;99640;-64
2022/01/11 03:17:40;;;;;;;;;;;;;;;11.68;48.73;102348.06;4941732;28;99106;-56
2022/01/11 03:20:07;;;;;;;;;;;;;;;11.68;49.03;102353.47;4940353;28;128364;-64
2022/01/11 03:22:33;;;;;;;;;;;;;;;11.67;49.21;102359.09;4940524;28;120117;-65
2022/01/11 03:24:59;;;;;;;;;;;;;;;11.66;48.97;102360.97;4942048;28;101189;-64
2022/01/11 03:27:25;;;;;;;;;;;;;;;11.65;48.58;102356.63;4920937;28;125908;-64
2022/01/11 03:29:53;;;;;;;;;;;;;;;11.64;49.05;102354.97;4922289;28;98675;-58
2022/01/11 03:32:19;;;;;;;;;;;;;;;11.64;48.92;102363.09;4921661;28;128055;-64
2022/01/11 03:34:46;;;;;;;;;;;;;;;11.63;48.61;102366.00;4922733;28;98039;-64
2022/01/11 03:37:16;;;;;;;;;;;;;;;11.62;48.59;102364.34;4921373;28;98257;-57
2022/01/11 03:39:42;;;;;;;;;;;;;;;11.61;48.85;102377.03;4921981;28;98414;-56
2022/01/11 03:42:08;;;;;;;;;;;;;;;11.61;48.96;102376.22;4922323;28;98355;-58
2022/01/11 03:44:33;;;;;;;;;;;;;;;11.59;48.83;102373.72;4921901;28;123017;-64
2022/01/11 03:47:00;;;;;;;;;;;;;;;11.59;48.41;102376.44;4920989;28;128266;-57
2022/01/11 03:49:26;;;;;;;;;;;;;;;11.59;48.76;102370.22;4921470;28;118930;-56
2022/01/11 03:51:52;;;;;;;;;;;;;;;11.59;48.71;102367.50;4920222;28;127838;-64
2022/01/11 03:54:24;;;;;;;;;;;;;;;11.57;48.89;102367.75;4936015;28;109685;-64
2022/01/11 03:56:50;;;;;;;;;;;;;;;11.57;49.04;102365.03;4922721;28;98153;-56
2022/01/11 03:59:16;;;;;;;;;;;;;;;11.56;48.64;102374.22;4920777;28;121288;-56
2022/01/11 04:01:42;;;;;;;;;;;;;;;11.56;48.88;102382.31;4922333;28;126430;-57
2022/01/11 04:04:09;;;;;;;;;;;;;;;11.54;48.24;102379.81;4920603;28;121772;-65
2022/01/11 04:06:36;;;;;;;;;;;;;;;11.55;48.80;102376.09;4921686;28;98405;-64
2022/01/11 04:09:02;;;;;;;;;;;;;;;11.53;48.43;102372.78;4940689;28;121875;-65
2022/01/11 04:11:28;;;;;;;;;;;;;;;11.54;48.56;102377.13;4930692;28;98540;-64
2022/01/11 04:13:54;;;;;;;;;;;;;;;11.53;48.71;102374.66;4921486;28;122624;-56
2022/01/11 04:16:20;;;;;;;;;;;;;;;11.54;48.61;102381.69;4921778;28;110119;-65
2022/01/11 04:18:46;;;;;;;;;;;;;;;11.52;48.41;102381.94;4920728;28;128563;-55
2022/01/11 04:21:12;;;;;;;;;;;;;;;11.52;48.30;102384.63;4922019;28;112682;-57
2022/01/11 04:23:39;;;;;;;;;;;;;;;11.52;48.49;102379.25;4935478;28;121528;-56
2022/01/11 04:26:05;;;;;;;;;;;;;;;11.53;48.25;102377.34;4921392;28;98241;-56
2022/01/11 04:28:31;;;;;;;;;;;;;;;11.52;48.62;102383.81;4921561;28;98645;-64
2022/01/11 04:31:00;;;;;;;;;;;;;;;11.51;48.53;102391.09;4919701;28;126557;-64
2022/01/11 04:33:26;;;;;;;;;;;;;;;11.50;48.62;102389.44;4922079;28;98002;-57
2022/01/11 04:35:52;;;;;;;;;;;;;;;11.51;48.28;102393.81;4936823;28;98966;-57
2022/01/11 04:38:22;;;;;;;;;;;;;;;11.50;48.63;102400.22;4940107;28;99718;-56
2022/01/11 04:40:48;;;;;;;;;;;;;;;11.50;48.31;102397.53;4901464;28;98269;-56
2022/01/11 04:43:14;;;;;;;;;;;;;;;11.51;48.80;102401.06;4916501;28;98063;-57
2022/01/11 04:45:40;;;;;;;;;;;;;;;11.51;48.33;102398.34;4919818;28;128463;-57
2022/01/11 04:48:06;;;;;;;;;;;;;;;11.51;48.28;102403.75;4920400;28;109945;-64
2022/01/11 04:50:32;;;;;;;;;;;;;;;11.49;48.36;102401.28;4920580;28;127950;-64
2022/01/11 04:52:59;;;;;;;;;;;;;;;11.49;48.25;102393.19;4921661;28;97941;-64
2022/01/11 04:55:25;;;;;;;;;;;;;;;11.48;48.71;102391.56;4920376;28;122248;-55
2022/01/11 04:57:50;;;;;;;;;;;;;;;11.48;48.56;102396.94;4921657;28;117184;-65
2022/01/11 05:00:18;;;;;;;;;;;;;;;11.48;48.38;102407.75;4919939;28;127515;-56
2022/01/11 05:02:44;;;;;;;;;;;;;;;11.48;48.35;102413.16;4929150;28;113706;-56
2022/01/11 05:05:10;;;;;;;;;;;;;;;11.48;48.13;102406.94;4940093;28;98718;-64
2022/01/11 05:07:35;;;;;;;;;;;;;;;11.48;48.06;102412.34;4931438;28;98331;-57
2022/01/11 05:10:02;;;;;;;;;;;;;;;11.49;48.62;102413.97;4921301;28;120262;-57
2022/01/11 05:12:28;;;;;;;;;;;;;;;11.49;48.47;102412.09;4920945;28;97828;-65
2022/01/11 05:14:54;;;;;;;;;;;;;;;11.48;48.40;102417.72;4921167;28;125090;-64
2022/01/11 05:17:19;;;;;;;;;;;;;;;11.47;48.25;102424.97;4936791;28;128675;-56
2022/01/11 05:19:45;;;;;;;;;;;;;;;11.48;48.50;102425.84;4940050;28;126558;-57
2022/01/11 05:22:11;;;;;;;;;;;;;;;11.46;48.13;102420.63;4940127;28;123856;-57
2022/01/11 05:24:37;;;;;;;;;;;;;;;11.46;48.42;102415.25;4938763;28;128629;-64
2022/01/11 05:27:03;;;;;;;;;;;;;;;11.45;48.36;102410.91;4938518;28;127005;-65
2022/01/11 05:29:31;;;;;;;;;;;;;;;11.46;48.15;102412.53;4939294;28;118501;-57
2022/01/11 05:31:58;;;;;;;;;;;;;;;11.45;48.36;102413.59;4940419;28;97871;-56
2022/01/11 05:34:25;;;;;;;;;;;;;;;11.45;48.09;102423.59;4939475;28;98578;-64
2022/01/11 05:36:51;;;;;;;;;;;;;;;11.44;48.00;102436.25;4920268;28;99055;-63
2022/01/11 05:39:17;;;;;;;;;;;;;;;11.44;48.21;102433.56;4918642;28;119146;-57
2022/01/11 05:41:43;;;;;;;;;;;;;;;11.44;47.85;102443.53;4918702;28;98144;-56
2022/01/11 05:44:09;;;;;;;;;;;;;;;11.43;48.36;102439.16;4915658;28;98253;-56
2022/01/11 05:46:35;;;;;;;;;;;;;;;11.43;47.97;102448.09;4914488;28;127192;-57
2022/01/11 05:49:01;;;;;;;;;;;;;;;11.42;48.19;102446.44;4915256;28;110311;-57
2022/01/11 05:51:27;;;;;;;;;;;;;;;11.41;48.30;102446.69;4915633;28;102994;-56
2022/01/11 05:53:54;;;;;;;;;;;;;;;11.40;48.14;102451.25;4915441;28;98360;-57
2022/01/11 05:56:20;;;;;;;;;;;;;;;11.41;48.50;102447.50;4927737;28;118626;-56
2022/01/11 05:58:46;;;;;;;;;;;;;;;11.41;48.23;102452.91;4932612;28;115179;-57
2022/01/11 06:01:13;;;;;;;;;;;;;;;11.40;47.93;102456.66;4917996;28;97935;-56
2022/01/11 06:03:39;;;;;;;;;;;;;;;11.40;47.90;102450.44;4925987;28;122724;-57
2022/01/11 06:06:05;;;;;;;;;;;;;;;11.39;48.32;102444.19;4936694;28;122346;-57
2022/01/11 06:08:31;;;;;;;;;;;;;;;11.39;47.82;102455.00;4938489;28;98377;-56
2022/01/11 06:10:57;;;;;;;;;;;;;;;11.39;47.62;102454.16;4936327;28;122641;-56
2022/01/11 06:13:23;;;;;;;;;;;;;;;11.38;48.17;102456.06;4938189;28;98360;-56
2022/01/11 06:15:50;;;;;;;;;;;;;;;11.38;48.05;102461.44;4917558;28;119094;-56
2022/01/11 06:18:16;;;;;;;;;;;;;;;11.38;48.02;102469.56;4918263;28;114362;-57
2022/01/11 06:20:41;;;;;;;;;;;;;;;11.38;47.84;102468.72;4917588;28;117749;-57
2022/01/11 06:23:07;;;;;;;;;;;;;;;11.38;47.66;102479.53;4918156;28;128965;-56
2022/01/11 06:25:33;;;;;;;;;;;;;;;11.37;48.01;102478.72;4918213;28;99309;-57
2022/01/11 06:27:59;;;;;;;;;;;;;;;11.37;47.78;102480.59;4916199;28;98197;-56
2022/01/11 06:30:25;;;;;;;;;;;;;;;11.36;48.23;102485.16;4920790;28;122371;-57
2022/01/11 06:32:52;;;;;;;;;;;;;;;11.36;48.20;102489.72;4917188;28;128346;-56
2022/01/11 06:35:18;;;;;;;;;;;;;;;11.34;48.05;102486.44;4919602;28;98528;-56
2022/01/11 06:37:44;;;;;;;;;;;;;;;11.31;48.04;102493.91;4916803;28;127654;-56
2022/01/11 06:40:11;;;;;;;;;;;;;;;11.33;47.72;102495.59;4918273;28;98064;-56
2022/01/11 06:42:37;;;;;;;;;;;;;;;11.33;47.64;102498.28;4919847;28;98301;-56
2022/01/11 06:45:04;;;;;;;;;;;;;;;11.33;47.81;102500.97;4919057;28;99231;-57
2022/01/11 06:47:30;;;;;;;;;;;;;;;11.32;48.04;102508.25;4918103;28;118139;-56
2022/01/11 06:49:56;;;;;;;;;;;;;;;11.32;47.47;102508.25;4929915;28;126504;-56
2022/01/11 06:52:22;;;;;;;;;;;;;;;11.31;47.71;102518.22;4925062;28;106941;-56
2022/01/11 06:54:48;;;;;;;;;;;;;;;11.30;47.97;102516.56;4936758;28;127252;-56
2022/01/11 06:57:14;;;;;;;;;;;;;;;11.30;48.13;102521.97;4930668;28;127973;-56
2022/01/11 06:59:40;;;;;;;;;;;;;;;11.28;47.66;102526.78;4921033;28;122362;-56
2022/01/11 07:02:06;;;;;;;;;;;;;;;11.29;48.12;102527.59;4921851;28;98662;-56
2022/01/11 07:04:33;;;;;;;;;;;;;;;11.29;47.93;102541.09;4921898;28;99572;-57
2022/01/11 07:06:59;;;;;;;;;;;;;;;11.27;47.82;102538.59;4935760;28;98299;-57
2022/01/11 07:09:25;;;;;;;;;;;;;;;11.28;47.71;102540.28;4938276;28;98121;-56
2022/01/11 07:11:51;;;;;;;;;;;;;;;11.27;47.75;102537.78;4919859;28;128683;-57
2022/01/11 07:14:17;;;;;;;;;;;;;;;11.26;47.62;102544.22;4918855;28;99789;-56
2022/01/11 07:16:48;;;;;;;;;;;;;;;11.26;47.72;102546.94;4932420;28;127415;-56
2022/01/11 07:19:15;;;;;;;;;;;;;;;11.26;47.80;102552.34;4931675;28;98637;-65
2022/01/11 07:21:41;;;;;;;;;;;;;;;11.26;47.70;102553.16;4922087;28;97900;-56
2022/01/11 07:24:07;;;;;;;;;;;;;;;11.26;47.78;102552.34;4922946;28;98933;-56
2022/01/11 07:26:34;;;;;;;;;;;;;;;11.27;47.58;102557.50;4931705;28;127833;-56
2022/01/11 07:28:59;;;;;;;;;;;;;;;11.27;47.85;102562.06;4941828;28;97765;-56
2022/01/11 07:31:26;;;;;;;;;;;;;;;11.27;47.48;102576.41;4940573;28;129683;-64
2022/01/11 07:33:52;;;;;;;;;;;;;;;11.28;47.89;102575.38;4941706;28;98574;-56
2022/01/11 07:36:18;;;;;;;;;;;;;;;11.29;47.34;102582.41;4938673;28;127815;-56
2022/01/11 07:38:44;;;;;;;;;;;;;;;11.29;47.79;102573.50;4942132;28;97763;-64
2022/01/11 07:41:10;;;;;;;;;;;;;;;11.29;47.30;102578.91;4940749;28;123055;-64
2022/01/11 07:43:36;;;;;;;;;;;;;;;11.29;47.81;102578.91;4940110;28;104813;-64
2022/01/11 07:46:02;;;;;;;;;;;;;;;11.29;47.89;102578.91;4939609;28;126241;-64
2022/01/11 07:48:28;;;;;;;;;;;;;;;11.28;47.40;102569.16;4917416;28;124762;-65
2022/01/11 07:50:54;;;;;;;;;;;;;;;11.29;47.27;102571.63;4903075;28;98851;-64
2022/01/11 07:53:20;;;;;;;;;;;;;;;11.29;47.55;102570.78;4917624;28;113267;-64
2022/01/11 07:55:46;;;;;;;;;;;;;;;11.28;47.14;102571.84;4940544;28;127660;-63
2022/01/11 07:58:12;;;;;;;;;;;;;;;11.27;47.37;102573.69;4937285;28;97705;-65
2022/01/11 08:00:38;;;;;;;;;;;;;;;11.27;47.85;102579.09;4922474;28;98459;-64
2022/01/11 08:03:04;;;;;;;;;;;;;;;11.27;47.16;102580.97;4922063;28;98773;-66
2022/01/11 08:05:30;;;;;;;;;;;;;;;11.27;47.39;102580.97;4924504;28;128494;-64
2022/01/11 08:07:56;;;;;;;;;;;;;;;11.27;47.85;102580.97;4921374;28;116051;-64
2022/01/11 08:10:22;;;;;;;;;;;;;;;11.26;47.87;102582.03;4918911;28;126171;-64
2022/01/11 08:12:48;;;;;;;;;;;;;;;11.26;47.05;102587.44;4932293;28;128129;-64
2022/01/11 08:15:14;;;;;;;;;;;;;;;11.26;47.75;102580.16;4938600;28;125924;-65
2022/01/11 08:17:40;;;;;;;;;;;;;;;11.28;47.14;102593.44;4942319;28;97988;-65
2022/01/11 08:20:07;;;;;;;;;;;;;;;11.28;47.49;102588.88;4939444;28;97817;-65
2022/01/11 08:22:33;;;;;;;;;;;;;;;11.28;47.69;102588.06;4921270;28;99334;-65
2022/01/11 08:24:58;;;;;;;;;;;;;;;11.29;47.42;102587.00;4921032;28;127877;-64
2022/01/11 08:27:24;;;;;;;;;;;;;;;11.28;47.12;102596.97;4920846;28;120053;-64
2022/01/11 08:29:51;;;;;;;;;;;;;;;11.29;47.18;102592.41;4921942;28;111486;-64
2022/01/11 08:32:17;;;;;;;;;;;;;;;11.28;47.23;102596.16;4921056;28;128093;-64
2022/01/11 08:34:43;;;;;;;;;;;;;;;11.30;47.43;102594.03;4921612;28;112107;-64
2022/01/11 08:37:09;;;;;;;;;;;;;;;11.31;47.74;102603.78;4933835;28;98001;-64
2022/01/11 08:39:35;;;;;;;;;;;;;;;11.30;47.63;102602.97;4940685;28;119149;-64
2022/01/11 08:42:01;;;;;;;;;;;;;;;11.30;47.05;102608.38;4939508;28;98224;-65
2022/01/11 08:44:27;;;;;;;;;;;;;;;11.33;47.18;102603.59;4939903;28;122930;-64
2022/01/11 08:46:54;;;;;;;;;;;;;;;11.34;47.26;102603.34;4941448;28;98098;-64
2022/01/11 08:49:20;;;;;;;;;;;;;;;11.36;47.17;102605.81;4941825;28;98366;-65
2022/01/11 08:51:46;;;;;;;;;;;;;;;11.37;47.26;102610.19;4941491;28;98750;-64
2022/01/11 08:54:13;;;;;;;;;;;;;;;11.38;47.37;102601.88;4940324;28;98353;-64
2022/01/11 08:56:39;;;;;;;;;;;;;;;11.39;47.48;102599.97;4938812;28;106782;-65
2022/01/11 08:59:05;;;;;;;;;;;;;;;11.39;46.85;102598.09;4939599;28;121233;-64
2022/01/11 09:01:31;;;;;;;;;;;;;;;11.42;47.12;102604.94;4938765;28;116052;-64
2022/01/11 09:03:58;;;;;;;;;;;;;;;11.43;47.10;102610.13;4939256;28;98561;-65
2022/01/11 09:06:24;;;;;;;;;;;;;;;11.45;47.49;102615.31;4940745;28;97940;-64
2022/01/11 09:08:50;;;;;;;;;;;;;;;11.47;47.55;102613.19;4940038;28;99074;-64
2022/01/11 09:11:16;;;;;;;;;;;;;;;11.48;47.38;102617.59;4939852;28;128581;-65
2022/01/11 09:13:42;;;;;;;;;;;;;;;11.47;47.34;102622.13;4940781;28;127204;-65
2022/01/11 09:16:08;;;;;;;;;;;;;;;11.49;47.23;102617.34;4920210;28;121888;-65
2022/01/11 09:18:34;;;;;;;;;;;;;;;11.50;47.49;102624.41;4918318;28;98334;-64
2022/01/11 09:21:03;;;;;;;;;;;;;;;11.51;47.02;102619.81;4920902;28;98562;-64
2022/01/11 09:23:29;;;;;;;;;;;;;;;11.52;47.38;102621.50;4921707;28;98615;-64
2022/01/11 09:25:55;;;;;;;;;;;;;;;11.56;47.29;102628.09;4921107;28;114964;-64
2022/01/11 09:28:21;;;;;;;;;;;;;;;11.59;46.70;102626.81;4921601;28;126806;-64
2022/01/11 09:30:47;;;;;;;;;;;;;;;11.62;47.03;102634.47;4938336;28;98892;-64
2022/01/11 09:33:13;;;;;;;;;;;;;;;11.66;46.93;102641.91;4940505;28;99335;-65
2022/01/11 09:35:39;;;;;;;;;;;;;;;11.69;47.22;102640.66;4939201;28;123568;-64
2022/01/11 09:38:05;;;;;;;;;;;;;;;11.73;47.16;102641.84;4939341;28;109016;-64
2022/01/11 09:40:31;;;;;;;;;;;;;;;11.76;46.87;102644.94;4939595;28;128212;-64
2022/01/11 09:42:57;;;;;;;;;;;;;;;11.83;47.06;102638.63;4938112;28;127601;-65
2022/01/11 09:45:23;;;;;;;;;;;;;;;11.87;46.89;102637.16;4939253;28;105790;-64
2022/01/11 09:47:49;;;;;;;;;;;;;;;11.90;46.90;102626.75;4937596;28;128677;-64
2022/01/11 09:50:15;;;;;;;;;;;;;;;11.91;46.82;102627.59;4921114;28;122008;-64
2022/01/11 09:52:41;;;;;;;;;;;;;;;11.94;46.83;102629.81;4939426;28;117984;-64
2022/01/11 09:55:08;;;;;;;;;;;;;;;11.97;46.79;102623.97;4939570;28;98286;-64
2022/01/11 09:57:34;;;;;;;;;;;;;;;12.00;46.64;102626.25;4939895;28;98496;-64
2022/01/11 10:00:00;;;;;;;;;;;;;;;12.06;46.81;102629.91;4939561;28;99152;-64
2022/01/11 10:02:26;;;;;;;;;;;;;;;12.10;46.64;102628.41;4938859;28;127663;-64
2022/01/11 10:04:59;;;;;;;;;;;;;;;12.19;46.14;102625.19;4939576;28;122416;-64
2022/01/11 10:07:29;;;;;;;;;;;;;;;12.31;46.85;102627.13;4929974;28;99225;-64
2022/01/11 10:09:55;;;;;;;;;;;;;;;12.41;46.18;102622.00;4919548;28;98984;-64
2022/01/11 10:12:22;;;;;;;;;;;;;;;12.49;46.34;102617.09;4920224;28;98579;-64
2022/01/11 10:14:50;;;;;;;;;;;;;;;12.61;46.28;102613.63;4921634;28;97866;-64
2022/01/11 10:17:23;;;;;;;;;;;;;;;12.72;46.14;102619.09;4920193;28;98881;-64
2022/01/11 10:20:10;;;;;;;;;;;;;;;12.85;46.06;102614.53;4920288;28;98338;-64
2022/01/11 10:22:46;;;;;;;;;;;;;;;13.00;45.99;102626.59;4920511;28;99017;-64
2022/01/11 10:25:12;;;;;;;;;;;;;;;13.17;45.74;102617.81;4918269;28;97813;-64
2022/01/11 10:27:38;;;;;;;;;;;;;;;13.27;45.76;102621.59;4919106;28;128151;-65
2022/01/11 10:30:12;;;;;;;;;;;;;;;13.39;45.73;102626.22;4922407;28;98706;-65
2022/01/11 10:32:40;;;;;;;;;;;;;;;13.44;45.61;102623.63;4923589;28;97847;-64
2022/01/11 10:35:24;;;;;;;;;;;;;;;13.48;46.06;102624.84;4923626;28;102174;-65
2022/01/11 10:37:55;;;;;;;;;;;;;;;13.51;45.80;102619.75;4923111;28;98431;-65
2022/01/11 10:40:23;;;;;;;;;;;;;;;13.59;45.98;102623.16;4922869;28;120971;-65
2022/01/11 10:42:52;;;;;;;;;;;;;;;13.67;45.61;102620.91;4923751;28;98104;-65
2022/01/11 10:45:25;;;;;;;;;;;;;;;13.73;45.90;102624.59;4922994;28;97782;-65
2022/01/11 10:47:53;;;;;;;;;;;;;;;13.72;46.00;102623.78;4922155;28;119725;-65
2022/01/11 10:50:22;;;;;;;;;;;;;;;13.74;45.90;102621.63;4922859;28;98305;-65
2022/01/11 10:52:48;;;;;;;;;;;;;;;13.78;46.04;102621.97;4922714;28;97937;-65
2022/01/11 10:55:18;;;;;;;;;;;;;;;13.78;46.25;102613.84;4923176;28;97732;-65
2022/01/11 10:57:49;;;;;;;;;;;;;;;13.82;46.12;102616.91;4923580;28;98112;-65
2022/01/11 11:00:26;;;;;;;;;;;;;;;13.83;45.95;102619.38;4923067;28;117779;-65
2022/01/11 11:02:58;;;;;;;;;;;;;;;13.83;45.94;102616.66;4923237;28;97838;-64
2022/01/11 11:05:32;;;;;;;;;;;;;;;13.85;46.09;102616.44;4922638;28;99594;-65
2022/01/11 11:08:03;;;;;;;;;;;;;;;13.83;46.05;102615.84;4921295;28;98408;-65
2022/01/11 11:10:39;;;;;;;;;;;;;;;13.79;46.19;102604.66;4922627;28;118164;-65
2022/01/11 11:13:06;;;;;;;;;;;;;;;13.89;46.34;102609.50;4923106;28;98243;-57
2022/01/11 11:15:35;;;;;;;;;;;;;;;14.08;46.12;102608.28;4922498;28;120622;-57
2022/01/11 11:18:03;;;;;;;;;;;;;;;14.22;45.79;102606.09;4921816;28;98042;-65
2022/01/11 11:20:30;;;;;;;;;;;;;;;14.42;45.88;102606.53;4920562;28;100632;-57
2022/01/11 11:22:56;;;;;;;;;;;;;;;14.61;45.36;102601.75;4920438;28;98230;-65
2022/01/11 11:25:22;;;;;;;;;;;;;;;14.76;45.32;102606.66;4922787;28;122196;-57
2022/01/11 11:27:48;;;;;;;;;;;;;;;14.88;45.42;102596.53;4919881;28;116152;-65
2022/01/11 11:30:14;;;;;;;;;;;;;;;15.05;45.44;102596.59;4920852;28;98675;-57
2022/01/11 11:32:40;;;;;;;;;;;;;;;15.10;45.10;102590.41;4920117;28;98407;-65
2022/01/11 11:35:07;;;;;;;;;;;;;;;15.08;45.27;102597.97;4917676;28;98043;-65
2022/01/11 11:37:35;;;;;;;;;;;;;;;15.06;45.41;102595.50;4916937;28;113882;-65
2022/01/11 11:40:11;;;;;;;;;;;;;;;15.07;45.80;102590.91;4918857;28;98898;-57
2022/01/11 11:42:39;;;;;;;;;;;;;;;15.08;45.76;102590.63;4916160;28;97929;-65
2022/01/11 11:45:18;;;;;;;;;;;;;;;15.10;45.84;102583.09;4918851;28;98815;-57
2022/01/11 11:47:45;;;;;;;;;;;;;;;15.08;45.92;102595.25;4919259;28;98388;-57
2022/01/11 11:50:21;;;;;;;;;;;;;;;15.11;45.70;102582.00;4919382;28;99123;-57
2022/01/11 11:52:48;;;;;;;;;;;;;;;15.15;45.74;102588.59;4918876;28;98128;-56
2022/01/11 11:55:23;;;;;;;;;;;;;;;15.14;45.62;102589.66;4919043;28;98015;-57
2022/01/11 11:57:54;;;;;;;;;;;;;;;15.18;45.47;102579.94;4918729;28;98227;-57
2022/01/11 12:00:30;;;;;;;;;;;;;;;15.25;45.74;102592.53;4921111;28;98523;-66
2022/01/11 12:02:56;;;;;;;;;;;;;;;15.29;45.62;102593.69;4918858;28;100374;-57
2022/01/11 12:05:45;;;;;;;;;;;;;;;15.29;45.57;102585.53;4920077;28;97816;-57
2022/01/11 12:08:37;;;;;;;;;;;;;;;15.26;45.84;102581.44;4918708;28;98856;-57
2022/01/11 12:11:09;;;;;;;;;;;;;;;15.26;45.85;102581.44;4918056;28;98790;-57
2022/01/11 12:13:49;;;;;;;;;;;;;;;15.24;45.70;102575.41;4918652;28;98380;-57
2022/01/11 12:16:26;;;;;;;;;;;;;;;15.23;45.86;102568.34;4919754;28;97937;-57
2022/01/11 12:18:59;;;;;;;;;;;;;;;15.29;46.02;102571.94;4918775;28;99041;-57
2022/01/11 12:21:29;;;;;;;;;;;;;;;15.32;45.69;102575.00;4918541;28;122740;-65
2022/01/11 12:23:56;;;;;;;;;;;;;;;15.30;45.97;102579.03;4918849;28;97799;-57
2022/01/11 12:26:27;;;;;;;;;;;;;;;15.27;45.89;102574.09;4933614;28;97908;-65
2022/01/11 12:29:02;;;;;;;;;;;;;;;15.25;45.87;102566.22;4916069;28;119742;-57
2022/01/11 12:31:39;;;;;;;;;;;;;;;15.24;45.79;102572.69;4918941;28;99340;-57
2022/01/11 12:34:08;;;;;;;;;;;;;;;15.19;45.91;102573.44;4918317;28;98362;-65
2022/01/11 12:36:56;;;;;;;;;;;;;;;15.15;45.92;102582.34;4918283;28;97977;-65
2022/01/11 12:39:23;;;;;;;;;;;;;;;15.13;46.24;102584.47;4917609;28;99192;-64
2022/01/11 12:41:49;;;;;;;;;;;;;;;15.05;46.03;102582.16;4918910;28;123856;-65